createdAt,value
2023-03-01T00:01:10.282Z,19.38
2023-03-01T00:03:37.547Z,21.77
2023-03-01T00:06:05.488Z,20.27
2023-03-01T00:08:33.997Z,24.50
2023-03-01T00:11:14.917Z,21.33
2023-03-01T00:13:43.021Z,22.67
2023-03-01T00:16:14.229Z,24.67
2023-03-01T00:18:41.967Z,32.85
2023-03-01T00:21:09.049Z,22.55
2023-03-01T00:23:36.839Z,27.83
2023-03-01T00:26:07.575Z,27.75
2023-03-01T00:28:34.782Z,24.23
2023-03-01T00:31:07.073Z,23.55
2023-03-01T00:33:34.545Z,25.13
2023-03-01T00:36:02.455Z,25.23
2023-03-01T00:38:29.639Z,23.98
2023-03-01T00:40:56.707Z,29.00
2023-03-01T00:43:23.748Z,27.15
2023-03-01T00:45:50.853Z,26.92
2023-03-01T00:48:17.959Z,23.60
2023-03-01T00:50:44.985Z,30.33
2023-03-01T00:53:11.958Z,24.33
2023-03-01T00:55:39.034Z,25.52
2023-03-01T00:58:06.047Z,29.58
2023-03-01T01:00:33.044Z,25.58
2023-03-01T01:03:00.062Z,27.73
2023-03-01T01:05:27.137Z,25.45
2023-03-01T01:07:54.120Z,22.27
2023-03-01T01:10:22.279Z,25.23
2023-03-01T01:12:49.335Z,28.55
2023-03-01T01:15:17.662Z,27.27
2023-03-01T01:17:44.893Z,26.80
2023-03-01T01:20:12.585Z,30.75
2023-03-01T01:22:39.625Z,53.55
2023-03-01T01:25:06.977Z,28.33
2023-03-01T01:27:34.023Z,26.55
2023-03-01T01:30:01.041Z,24.50
2023-03-01T01:32:28.063Z,27.65
2023-03-01T01:34:55.144Z,26.80
2023-03-01T01:37:22.464Z,31.55
2023-03-01T01:39:49.507Z,26.83
2023-03-01T01:42:20.138Z,27.05
2023-03-01T01:44:48.409Z,28.65
2023-03-01T01:47:23.278Z,27.25
2023-03-01T01:49:57.307Z,27.60
2023-03-01T01:52:36.957Z,26.92
2023-03-01T01:55:09.441Z,30.92
2023-03-01T01:57:49.825Z,28.42
2023-03-01T02:00:20.360Z,23.65
2023-03-01T02:02:53.171Z,30.88
2023-03-01T02:05:44.421Z,26.38
2023-03-01T02:08:14.073Z,25.80
2023-03-01T02:10:42.257Z,26.48
2023-03-01T02:13:10.236Z,25.20
2023-03-01T02:15:39.396Z,27.95
2023-03-01T02:18:08.009Z,29.30
2023-03-01T02:20:58.452Z,31.85
2023-03-01T02:23:26.706Z,28.80
2023-03-01T02:26:16.396Z,24.25
2023-03-01T02:28:46.206Z,29.40
2023-03-01T02:31:36.466Z,28.88
2023-03-01T02:34:05.720Z,29.25
2023-03-01T02:36:37.836Z,26.55
2023-03-01T02:39:07.709Z,28.38
2023-03-01T02:41:39.737Z,26.10
2023-03-01T02:44:07.150Z,27.25
2023-03-01T02:46:34.393Z,29.90
2023-03-01T02:49:01.567Z,31.00
2023-03-01T02:51:46.839Z,23.70
2023-03-01T02:54:37.918Z,27.10
2023-03-01T02:57:05.117Z,22.23
2023-03-01T02:59:40.514Z,27.92
2023-03-01T03:02:09.009Z,23.38
2023-03-01T03:04:36.106Z,19.95
2023-03-01T03:07:03.228Z,25.00
2023-03-01T03:09:30.265Z,25.27
2023-03-01T03:11:57.232Z,30.10
2023-03-01T03:14:24.695Z,23.38
2023-03-01T03:16:52.100Z,28.67
2023-03-01T03:19:20.863Z,36.58
2023-03-01T03:21:48.299Z,31.15
2023-03-01T03:24:15.343Z,30.63
2023-03-01T03:26:42.385Z,30.98
2023-03-01T03:29:09.374Z,33.17
2023-03-01T03:31:36.393Z,30.98
2023-03-01T03:34:03.508Z,32.05
2023-03-01T03:36:30.662Z,32.63
2023-03-01T03:38:57.880Z,30.58
2023-03-01T03:41:24.951Z,33.88
2023-03-01T03:43:52.061Z,36.30
2023-03-01T03:46:19.066Z,31.27
2023-03-01T03:48:47.148Z,32.47
2023-03-01T03:51:16.245Z,31.27
2023-03-01T03:53:44.196Z,28.80
2023-03-01T03:56:11.749Z,29.52
2023-03-01T03:58:39.224Z,35.33
2023-03-01T04:01:06.948Z,36.13
2023-03-01T04:03:36.199Z,28.98
2023-03-01T04:06:04.101Z,34.28
2023-03-01T04:08:31.128Z,27.92
2023-03-01T04:11:01.658Z,32.35
2023-03-01T04:13:28.779Z,28.70
2023-03-01T04:15:56.273Z,29.95
2023-03-01T04:18:26.180Z,38.03
2023-03-01T04:20:56.532Z,31.67
2023-03-01T04:23:24.053Z,30.00
2023-03-01T04:25:56.882Z,28.38
2023-03-01T04:28:36.047Z,28.70
2023-03-01T04:31:19.391Z,28.05
2023-03-01T04:33:49.677Z,27.02
2023-03-01T04:36:18.720Z,27.42
2023-03-01T04:38:49.416Z,30.67
2023-03-01T04:41:18.731Z,30.30
2023-03-01T04:43:46.432Z,30.55
2023-03-01T04:46:16.325Z,26.15
2023-03-01T04:48:45.470Z,27.05
2023-03-01T04:51:14.841Z,31.30
2023-03-01T04:53:42.338Z,34.42
2023-03-01T04:56:10.049Z,31.02
2023-03-01T04:58:37.091Z,37.75
2023-03-01T05:01:16.383Z,26.65
2023-03-01T05:03:48.529Z,36.35
2023-03-01T05:06:16.336Z,31.45
2023-03-01T05:08:44.124Z,31.00
2023-03-01T05:11:11.619Z,31.67
2023-03-01T05:13:40.307Z,36.08
2023-03-01T05:16:12.548Z,33.55
2023-03-01T05:18:41.416Z,27.70
2023-03-01T05:21:14.271Z,34.25
2023-03-01T05:23:41.846Z,35.28
2023-03-01T05:26:25.857Z,35.53
2023-03-01T05:28:53.164Z,34.50
2023-03-01T05:31:20.237Z,33.88
2023-03-01T05:33:47.304Z,33.95
2023-03-01T05:36:14.303Z,35.25
2023-03-01T05:38:41.316Z,30.25
2023-03-01T05:41:16.178Z,33.13
2023-03-01T05:43:44.728Z,32.08
2023-03-01T05:46:13.779Z,35.05
2023-03-01T05:48:40.791Z,40.33
2023-03-01T05:51:07.862Z,33.03
2023-03-01T05:53:34.917Z,32.42
2023-03-01T05:56:05.106Z,32.88
2023-03-01T05:58:32.133Z,29.75
2023-03-01T06:00:59.208Z,34.28
2023-03-01T06:03:26.740Z,32.15
2023-03-01T06:05:58.075Z,32.95
2023-03-01T06:08:28.016Z,32.58
2023-03-01T06:10:55.219Z,31.40
2023-03-01T06:13:22.369Z,31.70
2023-03-01T06:15:49.436Z,29.20
2023-03-01T06:18:16.596Z,35.00
2023-03-01T06:20:43.665Z,30.50
2023-03-01T06:23:10.788Z,25.08
2023-03-01T06:25:38.627Z,28.17
2023-03-01T06:28:05.713Z,30.08
2023-03-01T06:30:33.161Z,27.25
2023-03-01T06:33:04.187Z,28.08
2023-03-01T06:35:31.966Z,26.00
2023-03-01T06:38:01.246Z,32.90
2023-03-01T06:40:29.162Z,31.30
2023-03-01T06:42:56.239Z,34.40
2023-03-01T06:45:23.279Z,29.83
2023-03-01T06:47:50.640Z,38.10
2023-03-01T06:50:19.050Z,27.17
2023-03-01T06:55:14.856Z,29.50
2023-03-01T06:57:41.907Z,26.77
2023-03-01T07:00:09.943Z,27.58
2023-03-01T07:02:36.960Z,32.65
2023-03-01T07:05:04.243Z,29.60
2023-03-01T07:07:31.394Z,31.02
2023-03-01T07:09:58.471Z,28.90
2023-03-01T07:12:25.478Z,30.08
2023-03-01T07:14:52.536Z,30.95
2023-03-01T07:17:20.007Z,27.33
2023-03-01T07:19:47.051Z,35.88
2023-03-01T07:22:14.084Z,26.05
2023-03-01T07:24:42.788Z,28.83
2023-03-01T07:27:09.856Z,32.42
2023-03-01T07:29:39.730Z,28.05
2023-03-01T07:32:07.301Z,26.33
2023-03-01T07:34:34.476Z,28.88
2023-03-01T07:37:01.489Z,35.83
2023-03-01T07:39:28.613Z,31.60
2023-03-01T07:41:55.620Z,27.60
2023-03-01T07:44:22.770Z,26.88
2023-03-01T07:46:49.884Z,31.27
2023-03-01T07:49:16.880Z,29.70
2023-03-01T07:51:44.823Z,26.73
2023-03-01T07:54:11.988Z,30.48
2023-03-01T07:56:39.024Z,30.00
2023-03-01T07:59:06.048Z,31.40
2023-03-01T08:01:33.101Z,37.78
2023-03-01T08:04:00.172Z,28.27
2023-03-01T08:06:27.381Z,28.58
2023-03-01T08:08:57.716Z,28.50
2023-03-01T08:11:24.882Z,32.58
2023-03-01T08:13:53.920Z,28.23
2023-03-01T08:16:21.826Z,32.35
2023-03-01T08:18:48.941Z,32.88
2023-03-01T08:21:18.288Z,32.35
2023-03-01T08:23:45.386Z,33.85
2023-03-01T08:26:21.075Z,28.83
2023-03-01T08:28:50.045Z,26.77
2023-03-01T08:31:25.859Z,30.70
2023-03-01T08:33:58.404Z,31.73
2023-03-01T08:36:31.537Z,26.52
2023-03-01T08:38:59.397Z,29.48
2023-03-01T08:41:27.106Z,28.98
2023-03-01T08:43:59.733Z,28.67
2023-03-01T08:46:37.061Z,29.58
2023-03-01T08:49:22.315Z,27.15
2023-03-01T08:51:49.899Z,29.95
2023-03-01T08:54:20.192Z,30.40
2023-03-01T08:56:47.792Z,30.52
2023-03-01T08:59:16.524Z,29.80
2023-03-01T09:01:46.333Z,30.27
2023-03-01T09:04:15.456Z,25.38
2023-03-01T09:06:43.175Z,29.77
2023-03-01T09:09:17.095Z,28.58
2023-03-01T09:11:47.278Z,29.15
2023-03-01T09:14:15.320Z,33.05
2023-03-01T09:16:42.522Z,31.33
2023-03-01T09:19:09.616Z,28.90
2023-03-01T09:21:40.654Z,30.95
2023-03-01T09:24:16.184Z,32.25
2023-03-01T09:26:44.134Z,32.17
2023-03-01T09:29:11.427Z,31.73
2023-03-01T09:31:38.590Z,32.88
2023-03-01T09:34:06.601Z,34.15
2023-03-01T09:36:34.587Z,27.85
2023-03-01T09:39:02.614Z,30.15
2023-03-01T09:41:41.425Z,27.77
2023-03-01T09:44:47.233Z,24.27
2023-03-01T09:47:21.301Z,29.70
2023-03-01T09:50:13.245Z,27.23
2023-03-01T09:52:42.831Z,29.20
2023-03-01T09:55:14.449Z,28.17
2023-03-01T09:58:07.868Z,30.83
2023-03-01T10:00:48.585Z,28.50
2023-03-01T10:03:32.178Z,29.38
2023-03-01T10:06:13.538Z,29.88
2023-03-01T10:08:58.946Z,25.98
2023-03-01T10:11:29.547Z,24.38
2023-03-01T10:14:06.366Z,25.55
2023-03-01T10:16:44.301Z,29.65
2023-03-01T10:19:21.654Z,32.72
2023-03-01T10:21:51.944Z,23.48
2023-03-01T10:24:22.634Z,25.17
2023-03-01T10:26:56.247Z,23.67
2023-03-01T10:29:50.003Z,26.33
2023-03-01T10:32:18.450Z,29.42
2023-03-01T10:34:45.523Z,24.00
2023-03-01T10:37:15.129Z,28.48
2023-03-01T10:39:58.760Z,25.55
2023-03-01T10:42:37.167Z,26.88
2023-03-01T10:45:34.399Z,24.85
2023-03-01T10:48:07.135Z,21.63
2023-03-01T10:50:34.441Z,23.35
2023-03-01T10:53:05.686Z,23.77
2023-03-01T10:55:35.892Z,21.95
2023-03-01T10:58:23.428Z,21.23
2023-03-01T11:00:59.072Z,25.42
2023-03-01T11:03:35.660Z,23.48
2023-03-01T11:06:06.758Z,29.98
2023-03-01T11:08:38.252Z,24.60
2023-03-01T11:11:17.985Z,24.33
2023-03-01T11:13:53.907Z,24.63
2023-03-01T11:16:36.839Z,19.70
2023-03-01T11:19:12.902Z,23.55
2023-03-01T11:21:55.759Z,20.42
2023-03-01T11:24:38.035Z,19.45
2023-03-01T11:27:17.809Z,21.10
2023-03-01T11:29:54.093Z,17.48
2023-03-01T11:32:24.639Z,14.35
2023-03-01T11:35:19.911Z,15.32
2023-03-01T11:38:04.876Z,19.33
2023-03-01T11:41:10.522Z,18.65
2023-03-01T11:44:15.350Z,24.30
2023-03-01T11:47:08.339Z,20.13
2023-03-01T11:49:38.465Z,30.58
2023-03-01T11:52:24.743Z,18.50
2023-03-01T11:55:09.796Z,22.17
2023-03-01T11:58:18.115Z,21.60
2023-03-01T12:00:50.921Z,21.55
2023-03-01T12:03:45.636Z,17.70
2023-03-01T12:06:36.349Z,17.05
2023-03-01T12:09:09.167Z,22.40
2023-03-01T12:12:04.050Z,20.48
2023-03-01T12:14:53.262Z,16.85
2023-03-01T12:17:46.527Z,16.05
2023-03-01T12:20:22.654Z,20.73
2023-03-01T12:23:34.277Z,19.45
2023-03-01T12:26:04.368Z,16.80
2023-03-01T12:29:07.531Z,21.83
2023-03-01T12:31:44.387Z,20.15
2023-03-01T12:34:29.946Z,19.88
2023-03-01T12:37:26.342Z,16.20
2023-03-01T12:40:35.657Z,24.73
2023-03-01T12:43:02.648Z,20.33
2023-03-01T12:46:06.465Z,21.10
2023-03-01T12:49:01.944Z,17.80
2023-03-01T12:51:32.563Z,27.80
2023-03-01T12:54:03.017Z,20.65
2023-03-01T12:56:35.978Z,24.02
2023-03-01T12:59:19.094Z,22.23
2023-03-01T13:01:55.330Z,17.95
2023-03-01T13:04:55.455Z,19.63
2023-03-01T13:07:40.253Z,17.85
2023-03-01T13:10:25.552Z,25.73
2023-03-01T13:13:14.465Z,20.40
2023-03-01T13:15:41.796Z,17.20
2023-03-01T13:18:20.465Z,18.30
2023-03-01T13:21:02.608Z,21.55
2023-03-01T13:23:33.973Z,18.92
2023-03-01T13:26:03.800Z,18.52
2023-03-01T13:28:36.746Z,20.27
2023-03-01T13:31:09.680Z,24.98
2023-03-01T13:33:47.319Z,17.70
2023-03-01T13:36:30.644Z,19.02
2023-03-01T13:38:59.445Z,17.75
2023-03-01T13:41:44.810Z,18.08
2023-03-01T13:44:25.620Z,18.80
2023-03-01T13:46:56.468Z,16.90
2023-03-01T13:49:31.431Z,16.13
2023-03-01T13:52:03.458Z,24.60
2023-03-01T13:54:34.329Z,26.23
2023-03-01T13:57:02.904Z,19.30
2023-03-01T13:59:31.371Z,21.13
2023-03-01T14:02:00.961Z,25.98
2023-03-01T14:04:36.891Z,22.55
2023-03-01T14:07:25.440Z,20.63
2023-03-01T14:09:59.250Z,22.63
2023-03-01T14:12:37.932Z,25.23
2023-03-01T14:15:20.098Z,24.45
2023-03-01T14:17:56.260Z,19.83
2023-03-01T14:20:26.907Z,21.88
2023-03-01T14:22:56.841Z,19.50
2023-03-01T14:25:35.719Z,20.00
2023-03-01T14:28:22.565Z,25.00
2023-03-01T14:30:52.675Z,24.88
2023-03-01T14:33:27.534Z,22.67
2023-03-01T14:36:01.815Z,25.17
2023-03-01T14:38:32.067Z,19.85
2023-03-01T14:41:05.016Z,21.23
2023-03-01T14:43:34.277Z,22.20
2023-03-01T14:46:01.550Z,24.17
2023-03-01T14:48:29.955Z,31.63
2023-03-01T14:50:57.464Z,25.30
2023-03-01T14:53:34.138Z,22.67
2023-03-01T14:56:05.026Z,26.38
2023-03-01T14:58:34.539Z,22.95
2023-03-01T15:01:05.051Z,19.33
2023-03-01T15:03:36.452Z,17.17
2023-03-01T15:06:05.465Z,18.02
2023-03-01T15:08:36.566Z,21.00
2023-03-01T15:11:18.137Z,23.30
2023-03-01T15:13:47.545Z,22.90
2023-03-01T15:16:24.128Z,20.10
2023-03-01T15:18:57.716Z,19.98
2023-03-01T15:21:36.353Z,23.05
2023-03-01T15:24:28.578Z,20.27
2023-03-01T15:27:03.015Z,19.10
2023-03-01T15:29:32.494Z,19.52
2023-03-01T15:32:21.877Z,20.58
2023-03-01T15:34:49.257Z,21.95
2023-03-01T15:37:39.787Z,23.35
2023-03-01T15:40:33.520Z,20.75
2023-03-01T15:43:07.776Z,20.90
2023-03-01T15:45:35.307Z,21.05
2023-03-01T15:48:07.518Z,22.73
2023-03-01T15:50:37.097Z,19.80
2023-03-01T15:53:13.052Z,19.95
2023-03-01T15:55:40.199Z,17.45
2023-03-01T15:58:13.932Z,21.33
2023-03-01T16:00:48.781Z,18.67
2023-03-01T16:03:25.266Z,17.83
2023-03-01T16:05:52.785Z,21.60
2023-03-01T16:08:20.011Z,20.00
2023-03-01T16:10:49.480Z,25.45
2023-03-01T16:13:16.973Z,20.17
2023-03-01T16:15:45.255Z,22.48
2023-03-01T16:18:12.956Z,19.05
2023-03-01T16:20:41.274Z,19.98
2023-03-01T16:23:09.918Z,22.20
2023-03-01T16:25:37.565Z,17.45
2023-03-01T16:28:10.408Z,25.05
2023-03-01T16:30:39.245Z,20.60
2023-03-01T16:33:23.994Z,24.48
2023-03-01T16:35:53.511Z,21.10
2023-03-01T16:38:20.849Z,30.27
2023-03-01T16:40:53.162Z,29.95
2023-03-01T16:43:20.378Z,25.85
2023-03-01T16:45:47.805Z,32.63
2023-03-01T16:48:15.692Z,24.65
2023-03-01T16:50:43.303Z,26.02
2023-03-01T16:53:10.895Z,28.20
2023-03-01T16:55:39.025Z,26.80
2023-03-01T16:58:14.504Z,29.27
2023-03-01T17:00:41.675Z,27.60
2023-03-01T17:03:10.397Z,27.25
2023-03-01T17:05:41.608Z,32.60
2023-03-01T17:08:08.937Z,31.58
2023-03-01T17:10:36.164Z,33.30
2023-03-01T17:13:03.323Z,28.83
2023-03-01T17:15:31.014Z,32.42
2023-03-01T17:17:58.253Z,31.95
2023-03-01T17:20:25.847Z,30.50
2023-03-01T17:22:53.772Z,38.90
2023-03-01T17:25:21.505Z,34.25
2023-03-01T17:27:50.492Z,29.10
2023-03-01T17:30:18.350Z,33.72
2023-03-01T17:32:45.780Z,36.35
2023-03-01T17:35:15.775Z,38.78
2023-03-01T17:37:46.683Z,35.28
2023-03-01T17:40:14.663Z,39.25
2023-03-01T17:42:42.071Z,38.15
2023-03-01T17:45:10.667Z,37.70
2023-03-01T17:47:38.221Z,38.90
2023-03-01T17:50:08.067Z,37.90
2023-03-01T17:52:35.127Z,35.78
2023-03-01T17:55:02.751Z,27.70
2023-03-01T17:57:30.044Z,29.30
2023-03-01T17:59:57.842Z,35.33
2023-03-01T18:02:26.827Z,32.25
2023-03-01T18:04:57.366Z,35.53
2023-03-01T18:07:28.517Z,36.00
2023-03-01T18:09:57.236Z,31.75
2023-03-01T18:12:25.137Z,32.55
2023-03-01T18:14:55.985Z,34.00
2023-03-01T18:17:27.156Z,29.73
2023-03-01T18:19:57.157Z,34.10
2023-03-01T18:22:25.120Z,33.25
2023-03-01T18:25:02.650Z,35.20
2023-03-01T18:27:31.729Z,32.90
2023-03-01T18:29:59.791Z,39.75
2023-03-01T18:32:28.245Z,32.78
2023-03-01T18:34:56.230Z,31.15
2023-03-01T18:37:23.755Z,29.70
2023-03-01T18:39:55.062Z,28.85
2023-03-01T18:42:24.137Z,30.40
2023-03-01T18:44:52.087Z,30.40
2023-03-01T18:47:20.116Z,32.92
2023-03-01T18:49:48.113Z,32.17
2023-03-01T18:52:17.337Z,28.23
2023-03-01T18:54:44.987Z,26.63
2023-03-01T18:57:12.886Z,25.05
2023-03-01T18:59:41.611Z,29.65
2023-03-01T19:02:11.701Z,25.60
2023-03-01T19:04:43.181Z,23.98
2023-03-01T19:07:10.934Z,26.35
2023-03-01T19:09:39.940Z,33.38
2023-03-01T19:12:08.006Z,39.35
2023-03-01T19:14:36.063Z,40.13
2023-03-01T19:17:06.236Z,29.15
2023-03-01T19:19:34.188Z,25.25
2023-03-01T19:22:08.583Z,21.77
2023-03-01T19:24:36.730Z,25.25
2023-03-01T19:27:04.660Z,23.90
2023-03-01T19:29:33.986Z,28.10
2023-03-01T19:32:03.295Z,18.20
2023-03-01T19:34:31.286Z,27.08
2023-03-01T19:36:59.224Z,22.38
2023-03-01T19:39:28.103Z,25.48
2023-03-01T19:41:57.761Z,21.65
2023-03-01T19:44:25.345Z,22.98
2023-03-01T19:46:54.595Z,27.98
2023-03-01T19:49:22.613Z,25.70
2023-03-01T19:51:50.619Z,31.50
2023-03-01T19:54:22.402Z,24.08
2023-03-01T19:56:51.625Z,25.92
2023-03-01T19:59:24.921Z,26.15
2023-03-01T20:01:53.415Z,23.58
2023-03-01T20:04:21.518Z,28.13
2023-03-01T20:06:50.579Z,24.75
2023-03-01T20:09:21.782Z,27.88
2023-03-01T20:11:50.792Z,29.77
2023-03-01T20:14:21.121Z,21.80
2023-03-01T20:16:51.525Z,28.40
2023-03-01T20:19:19.716Z,38.38
2023-03-01T20:21:50.980Z,28.08
2023-03-01T20:24:19.070Z,32.17
2023-03-01T20:26:48.857Z,26.73
2023-03-01T20:29:16.871Z,27.42
2023-03-01T20:31:45.128Z,25.13
2023-03-01T20:34:13.107Z,23.77
2023-03-01T20:36:42.275Z,28.20
2023-03-01T20:39:12.181Z,27.45
2023-03-01T20:41:41.128Z,26.52
2023-03-01T20:44:09.933Z,33.53
2023-03-01T20:46:38.273Z,26.30
2023-03-01T20:49:07.738Z,28.95
2023-03-01T20:51:35.419Z,26.83
2023-03-01T20:54:03.411Z,27.67
2023-03-01T20:56:31.553Z,30.08
2023-03-01T20:58:59.382Z,32.08
2023-03-01T21:01:27.607Z,25.77
2023-03-01T21:03:56.246Z,30.52
2023-03-01T21:06:23.796Z,26.60
2023-03-01T21:08:51.952Z,26.77
2023-03-01T21:11:20.008Z,28.73
2023-03-01T21:13:47.409Z,27.98
2023-03-01T21:16:14.810Z,34.92
2023-03-01T21:18:43.185Z,25.00
2023-03-01T21:21:13.997Z,26.83
2023-03-01T21:23:42.825Z,25.60
2023-03-01T21:26:22.058Z,33.05
2023-03-01T21:28:51.265Z,23.50
2023-03-01T21:31:22.247Z,33.40
2023-03-01T21:33:54.987Z,27.20
2023-03-01T21:36:24.242Z,32.10
2023-03-01T21:38:52.880Z,30.80
2023-03-01T21:41:25.087Z,32.38
2023-03-01T21:43:53.846Z,32.03
2023-03-01T21:46:23.842Z,28.73
2023-03-01T21:48:52.847Z,29.95
2023-03-01T21:51:21.990Z,33.33
2023-03-01T21:53:50.655Z,28.50
2023-03-01T21:56:19.999Z,46.70
2023-03-01T21:58:47.151Z,33.33
2023-03-01T22:01:17.040Z,40.17
2023-03-01T22:03:45.945Z,37.15
2023-03-01T22:06:19.769Z,34.72
2023-03-01T22:08:49.006Z,39.53
2023-03-01T22:11:20.083Z,36.33
2023-03-01T22:13:51.824Z,36.40
2023-03-01T22:16:27.916Z,35.20
2023-03-01T22:18:55.963Z,35.67
2023-03-01T22:21:24.812Z,40.05
2023-03-01T22:23:53.869Z,33.50
2023-03-01T22:26:39.709Z,36.22
2023-03-01T22:29:12.673Z,40.35
2023-03-01T22:31:40.809Z,36.42
2023-03-01T22:34:09.299Z,37.45
2023-03-01T22:36:36.667Z,32.42
2023-03-01T22:39:04.453Z,38.47
2023-03-01T22:41:45.113Z,39.67
2023-03-01T22:44:22.998Z,42.90
2023-03-01T22:46:50.441Z,38.03
2023-03-01T22:49:18.300Z,36.42
2023-03-01T22:51:47.730Z,39.38
2023-03-01T22:54:15.813Z,39.40
2023-03-01T22:56:43.316Z,41.15
2023-03-01T22:59:13.626Z,44.47
2023-03-01T23:01:42.476Z,45.00
2023-03-01T23:04:09.626Z,38.45
2023-03-01T23:06:50.359Z,42.85
2023-03-01T23:09:32.858Z,45.88
2023-03-01T23:12:01.821Z,46.22
2023-03-01T23:14:32.393Z,41.50
2023-03-01T23:17:03.508Z,46.08
2023-03-01T23:19:31.026Z,43.03
2023-03-01T23:21:58.313Z,46.15
2023-03-01T23:24:31.635Z,43.60
2023-03-01T23:27:01.504Z,45.03
2023-03-01T23:29:28.945Z,44.17
2023-03-01T23:31:57.877Z,40.95
2023-03-01T23:34:26.102Z,46.38
2023-03-01T23:36:54.768Z,42.75
2023-03-01T23:39:22.472Z,45.88
2023-03-01T23:41:49.513Z,47.08
2023-03-01T23:44:19.112Z,53.85
2023-03-01T23:46:47.611Z,47.42
2023-03-01T23:49:17.915Z,46.72
2023-03-01T23:51:47.841Z,44.75
2023-03-01T23:54:17.870Z,43.58
2023-03-01T23:56:45.978Z,44.22
2023-03-01T23:59:19.536Z,40.47
